Time;durP1;ratioP1;P1;durP2;ratioP2;P2;SDS_P1;SDS_P2;PMS_P1;PMS_P2;Temp;Humidity;BMP_temperature;BMP_pressure;BME280_temperature;BME280_humidity;BME280_pressure;Samples;Min_cycle;Max_cycle;Signal;HPM_P1;HPM_P2
2023/06/27 00:01:19;;;;;;;8.20;6.47;;;20.00;64.50;;;;;;5061986;28;20056;-71
2023/06/27 00:03:45;;;;;;;8.52;6.57;;;20.00;65.20;;;;;;5060804;28;20106;-71
2023/06/27 00:06:19;;;;;;;9.98;6.55;;;20.00;65.10;;;;;;5061757;28;20033;-71
2023/06/27 00:08:49;;;;;;;10.13;7.30;;;19.80;65.40;;;;;;5059686;28;20537;-71
2023/06/27 00:11:15;;;;;;;10.70;7.45;;;19.80;65.80;;;;;;5060918;28;20037;-72
2023/06/27 00:13:43;;;;;;;9.20;7.00;;;19.70;65.90;;;;;;5060241;28;20033;-74
2023/06/27 00:16:12;;;;;;;7.75;6.45;;;19.70;65.90;;;;;;5058691;28;20059;-73
2023/06/27 00:18:40;;;;;;;10.82;7.55;;;19.60;66.10;;;;;;5061173;28;20025;-74
2023/06/27 00:21:06;;;;;;;9.93;6.70;;;19.60;66.20;;;;;;5060553;28;20171;-74
2023/06/27 00:23:35;;;;;;;9.60;7.15;;;19.60;66.20;;;;;;5060196;28;20033;-74
2023/06/27 00:26:03;;;;;;;10.30;6.78;;;19.60;66.10;;;;;;5060334;28;20039;-73
2023/06/27 00:28:29;;;;;;;8.45;7.03;;;19.60;66.10;;;;;;5058860;28;20064;-74
2023/06/27 00:30:56;;;;;;;11.13;6.75;;;19.60;65.80;;;;;;5043025;28;20033;-72
2023/06/27 00:33:22;;;;;;;8.20;6.80;;;19.50;66.20;;;;;;5040144;28;20028;-72
2023/06/27 00:35:48;;;;;;;9.13;7.10;;;19.50;66.00;;;;;;5055255;28;20568;-74
2023/06/27 00:38:14;;;;;;;9.15;7.00;;;19.40;66.30;;;;;;5056105;28;20190;-74
2023/06/27 00:40:40;;;;;;;9.63;7.30;;;19.50;66.30;;;;;;5059706;28;20115;-73
2023/06/27 00:43:06;;;;;;;9.75;7.85;;;19.50;66.20;;;;;;5061130;28;20038;-73
2023/06/27 00:45:31;;;;;;;11.57;7.25;;;19.50;66.30;;;;;;5061048;28;20067;-74
2023/06/27 00:48:00;;;;;;;8.75;7.43;;;19.50;66.00;;;;;;5059397;28;20452;-74
2023/06/27 00:50:30;;;;;;;9.55;7.55;;;19.60;66.10;;;;;;5061231;28;20517;-73
2023/06/27 00:52:59;;;;;;;10.32;7.57;;;19.50;66.00;;;;;;5062079;28;20160;-74
2023/06/27 00:55:25;;;;;;;11.25;7.80;;;19.50;66.20;;;;;;5060918;28;20048;-73
2023/06/27 00:57:53;;;;;;;11.45;7.78;;;19.50;66.20;;;;;;5060122;28;20056;-73
2023/06/27 01:00:19;;;;;;;11.13;7.65;;;19.50;66.10;;;;;;5058064;28;20063;-74
2023/06/27 01:02:45;;;;;;;9.23;7.90;;;19.50;66.40;;;;;;5059442;28;20080;-73
2023/06/27 01:05:14;;;;;;;10.75;7.43;;;19.40;66.60;;;;;;5060819;28;20041;-74
2023/06/27 01:07:46;;;;;;;15.98;8.23;;;19.40;66.70;;;;;;5059256;28;20037;-74
2023/06/27 01:10:22;;;;;;;13.02;7.25;;;19.40;66.70;;;;;;5062719;28;20063;-73
2023/06/27 01:13:16;;;;;;;9.93;7.63;;;19.30;66.90;;;;;;5059249;28;20537;-74
2023/06/27 01:15:42;;;;;;;10.50;7.80;;;19.30;66.70;;;;;;5057030;28;20194;-73
2023/06/27 01:18:11;;;;;;;10.95;7.75;;;19.30;66.70;;;;;;5060874;28;20032;-73
2023/06/27 01:20:38;;;;;;;13.77;8.40;;;19.30;66.90;;;;;;5044858;28;20039;-73
2023/06/27 01:23:11;;;;;;;12.25;9.07;;;19.20;66.90;;;;;;5070051;28;20518;-74
2023/06/27 01:25:40;;;;;;;10.65;8.63;;;19.30;66.80;;;;;;5061938;28;20060;-73
2023/06/27 01:28:07;;;;;;;13.82;9.10;;;19.30;67.00;;;;;;5058673;28;20037;-72
2023/06/27 01:30:36;;;;;;;9.52;8.25;;;19.30;67.00;;;;;;5061790;28;20035;-74
2023/06/27 01:33:07;;;;;;;11.63;8.13;;;19.30;67.10;;;;;;5060477;28;20119;-74
2023/06/27 01:35:52;;;;;;;12.48;8.35;;;19.30;67.10;;;;;;5059665;28;20037;-74
2023/06/27 01:38:29;;;;;;;10.88;8.43;;;19.30;66.90;;;;;;5061856;28;20063;-74
2023/06/27 01:40:57;;;;;;;14.02;8.45;;;19.20;67.20;;;;;;5059962;28;20499;-73
2023/06/27 01:43:24;;;;;;;10.32;8.50;;;19.20;67.20;;;;;;5059965;28;20482;-73
2023/06/27 01:45:51;;;;;;;12.73;9.20;;;19.20;67.30;;;;;;5057520;28;20120;-73
2023/06/27 01:48:18;;;;;;;10.63;8.27;;;19.20;67.20;;;;;;5060799;28;20032;-73
2023/06/27 01:50:44;;;;;;;12.15;9.38;;;19.20;67.40;;;;;;5055706;28;20119;-73
2023/06/27 01:53:10;;;;;;;12.88;9.57;;;19.00;67.50;;;;;;5058623;28;20132;-73
2023/06/27 01:55:36;;;;;;;12.68;9.57;;;18.90;68.00;;;;;;5058927;28;20051;-73
2023/06/27 01:58:02;;;;;;;10.98;8.80;;;19.00;68.30;;;;;;5054295;28;20037;-73
2023/06/27 02:00:28;;;;;;;12.95;8.65;;;19.00;68.50;;;;;;5059203;28;20032;-74
2023/06/27 02:02:55;;;;;;;12.52;8.43;;;19.00;68.50;;;;;;5059831;28;20041;-73
2023/06/27 02:05:20;;;;;;;10.85;7.85;;;19.10;68.30;;;;;;5044014;28;20033;-73
2023/06/27 02:07:46;;;;;;;11.15;8.52;;;19.00;68.40;;;;;;5058120;28;20052;-73
2023/06/27 02:10:12;;;;;;;9.88;7.75;;;19.00;68.80;;;;;;5054418;28;20028;-71
2023/06/27 02:12:39;;;;;;;10.05;7.47;;;18.90;69.00;;;;;;5063559;28;21499;-70
2023/06/27 02:15:05;;;;;;;12.90;8.05;;;19.00;69.00;;;;;;5060264;28;20032;-72
2023/06/27 02:17:32;;;;;;;10.50;7.90;;;19.00;68.90;;;;;;5061133;28;20482;-72
2023/06/27 02:19:58;;;;;;;13.85;7.70;;;19.00;68.60;;;;;;5062255;28;20451;-72
2023/06/27 02:22:24;;;;;;;10.55;7.32;;;19.10;68.70;;;;;;5073612;28;20031;-72
2023/06/27 02:24:50;;;;;;;10.15;7.00;;;19.00;68.80;;;;;;5058277;28;20395;-72
2023/06/27 02:27:16;;;;;;;12.30;8.40;;;19.00;68.80;;;;;;5057564;28;20566;-72
2023/06/27 02:29:42;;;;;;;10.07;7.60;;;19.00;68.80;;;;;;5055725;28;20037;-72
2023/06/27 02:32:08;;;;;;;11.20;7.60;;;19.00;68.90;;;;;;5054705;28;20560;-72
2023/06/27 02:34:34;;;;;;;10.57;7.60;;;19.00;69.00;;;;;;5057201;28;20082;-72
2023/06/27 02:37:01;;;;;;;13.38;7.60;;;19.00;68.70;;;;;;5060432;28;20037;-72
2023/06/27 02:39:27;;;;;;;10.27;7.18;;;19.10;68.70;;;;;;5039765;28;20043;-72
2023/06/27 02:41:53;;;;;;;10.45;7.43;;;19.10;68.70;;;;;;5062038;28;20075;-72
2023/06/27 02:44:19;;;;;;;7.93;7.07;;;19.20;68.10;;;;;;5061330;28;20033;-72
2023/06/27 02:46:45;;;;;;;11.93;8.05;;;19.30;68.00;;;;;;5061718;28;20071;-72
2023/06/27 02:49:11;;;;;;;9.88;6.25;;;19.50;67.70;;;;;;5063501;28;20036;-72
2023/06/27 02:51:38;;;;;;;10.32;7.30;;;19.60;67.50;;;;;;5060621;28;20082;-72
2023/06/27 02:54:04;;;;;;;9.52;7.20;;;19.60;67.10;;;;;;5060297;28;20028;-72
2023/06/27 02:56:30;;;;;;;10.82;6.97;;;19.70;67.00;;;;;;5062196;28;20044;-72
2023/06/27 02:58:56;;;;;;;9.27;6.82;;;19.80;66.90;;;;;;5064245;28;20461;-72
2023/06/27 03:01:22;;;;;;;10.70;6.88;;;19.90;66.30;;;;;;5062613;28;20037;-71
2023/06/27 03:03:48;;;;;;;9.77;6.15;;;19.90;66.00;;;;;;5060895;28;20140;-70
2023/06/27 03:06:15;;;;;;;11.45;6.80;;;19.90;66.00;;;;;;5058572;28;20025;-70
2023/06/27 03:08:41;;;;;;;8.05;6.65;;;20.00;66.00;;;;;;5066107;28;20035;-71
2023/06/27 03:11:07;;;;;;;9.88;6.85;;;19.90;65.90;;;;;;5059890;28;20061;-71
2023/06/27 03:13:34;;;;;;;8.77;6.45;;;19.90;66.20;;;;;;5060856;28;20052;-71
2023/06/27 03:16:00;;;;;;;8.52;5.97;;;19.90;65.90;;;;;;5060159;28;20040;-71
2023/06/27 03:18:28;;;;;;;8.55;6.95;;;20.00;65.80;;;;;;5061072;28;20041;-73
2023/06/27 03:20:55;;;;;;;6.93;6.00;;;19.80;65.80;;;;;;5060671;28;20036;-73
2023/06/27 03:23:21;;;;;;;8.50;6.38;;;19.70;66.20;;;;;;5060972;28;20071;-72
2023/06/27 03:25:47;;;;;;;8.15;6.28;;;19.80;66.20;;;;;;5061949;28;20044;-73
2023/06/27 03:28:14;;;;;;;7.85;5.90;;;19.80;66.00;;;;;;5058119;28;20419;-73
2023/06/27 03:30:47;;;;;;;10.73;6.10;;;19.70;66.10;;;;;;5063491;28;20033;-72
2023/06/27 03:33:15;;;;;;;8.15;5.93;;;19.70;66.30;;;;;;5059221;28;20028;-79
2023/06/27 03:35:41;;;;;;;10.75;5.85;;;19.70;66.00;;;;;;5057126;28;20036;-74
2023/06/27 03:38:08;;;;;;;6.90;5.78;;;19.70;66.10;;;;;;5058585;28;20235;-74
2023/06/27 03:40:33;;;;;;;7.80;5.53;;;19.60;66.20;;;;;;5058260;28;20117;-74
2023/06/27 03:43:01;;;;;;;8.18;6.07;;;19.60;66.50;;;;;;5064180;28;20140;-73
2023/06/27 03:45:28;;;;;;;8.25;5.70;;;19.50;66.30;;;;;;5047783;28;20040;-74
2023/06/27 03:47:54;;;;;;;8.85;6.28;;;19.50;66.50;;;;;;5056494;28;20506;-74
2023/06/27 03:50:20;;;;;;;6.50;5.57;;;19.50;66.40;;;;;;5059624;28;20041;-74
2023/06/27 03:52:46;;;;;;;8.00;5.80;;;19.80;66.30;;;;;;5076955;28;20037;-71
2023/06/27 03:55:12;;;;;;;8.45;6.20;;;20.10;65.90;;;;;;5057217;28;20037;-72
2023/06/27 03:57:40;;;;;;;7.43;5.80;;;20.50;65.00;;;;;;5062943;28;20073;-71
2023/06/27 04:00:07;;;;;;;7.68;5.40;;;20.50;64.20;;;;;;5063145;28;20119;-72
2023/06/27 04:02:41;;;;;;;11.55;6.00;;;20.70;64.20;;;;;;5060289;28;20036;-72
2023/06/27 04:05:07;;;;;;;6.72;5.57;;;20.80;63.70;;;;;;5056088;28;20037;-74
2023/06/27 04:07:35;;;;;;;7.03;5.00;;;20.80;63.30;;;;;;5060297;28;20127;-74
2023/06/27 04:10:02;;;;;;;7.75;5.00;;;21.00;63.20;;;;;;5062946;28;20032;-73
2023/06/27 04:12:28;;;;;;;6.43;5.20;;;21.00;63.00;;;;;;5059175;28;20407;-73
2023/06/27 04:14:54;;;;;;;6.05;5.32;;;21.00;62.40;;;;;;5060599;28;20507;-73
2023/06/27 04:17:20;;;;;;;6.43;5.13;;;21.00;62.80;;;;;;5058643;28;20033;-73
2023/06/27 04:19:46;;;;;;;7.25;5.22;;;21.10;62.70;;;;;;5057494;28;20048;-73
2023/06/27 04:22:12;;;;;;;7.88;5.40;;;21.00;62.50;;;;;;5055882;28;20115;-73
2023/06/27 04:24:38;;;;;;;8.23;5.63;;;21.10;62.50;;;;;;5062906;28;20028;-73
2023/06/27 04:27:04;;;;;;;6.55;5.53;;;21.40;62.30;;;;;;5058830;28;20040;-73
2023/06/27 04:29:30;;;;;;;6.78;5.40;;;21.60;61.40;;;;;;5059210;28;20572;-74
2023/06/27 04:31:56;;;;;;;6.82;5.22;;;21.80;61.10;;;;;;5060038;28;20059;-74
2023/06/27 04:34:22;;;;;;;8.98;5.25;;;21.80;60.80;;;;;;5059846;28;20074;-74
2023/06/27 04:36:48;;;;;;;5.28;4.78;;;22.00;60.90;;;;;;5060941;28;20041;-73
2023/06/27 04:39:14;;;;;;;6.75;5.07;;;22.30;60.40;;;;;;5061200;28;20036;-71
2023/06/27 04:41:40;;;;;;;5.65;4.28;;;22.50;59.90;;;;;;5063314;28;20880;-73
2023/06/27 04:44:06;;;;;;;5.78;4.63;;;22.80;59.40;;;;;;5061677;28;20325;-74
2023/06/27 04:46:32;;;;;;;7.07;4.97;;;23.00;58.70;;;;;;5060012;28;20317;-72
2023/06/27 04:48:58;;;;;;;6.95;5.00;;;23.20;58.50;;;;;;5059743;28;20043;-72
2023/06/27 04:51:27;;;;;;;4.85;4.45;;;23.40;57.90;;;;;;5059685;28;20086;-72
2023/06/27 04:53:53;;;;;;;5.65;4.38;;;23.70;57.60;;;;;;5060056;28;20032;-72
2023/06/27 04:56:19;;;;;;;6.45;4.50;;;23.80;56.70;;;;;;5060463;28;20199;-71
2023/06/27 04:58:45;;;;;;;4.57;4.10;;;23.70;56.40;;;;;;5059700;28;20074;-73
2023/06/27 05:01:11;;;;;;;5.78;4.10;;;23.70;56.50;;;;;;5058048;28;20458;-73
2023/06/27 05:03:38;;;;;;;4.20;3.80;;;24.00;56.70;;;;;;5063700;28;20577;-72
2023/06/27 05:06:04;;;;;;;5.88;4.45;;;24.30;56.20;;;;;;5059156;28;20037;-72
2023/06/27 05:08:30;;;;;;;5.13;4.38;;;24.40;55.40;;;;;;5060950;28;20057;-73
2023/06/27 05:10:56;;;;;;;6.93;4.45;;;24.50;55.30;;;;;;5058833;28;20061;-73
2023/06/27 05:13:23;;;;;;;4.03;3.63;;;24.70;54.50;;;;;;5057878;28;20032;-72
2023/06/27 05:15:49;;;;;;;6.18;4.20;;;24.80;54.00;;;;;;5057957;28;20428;-72
2023/06/27 05:18:15;;;;;;;5.18;3.75;;;24.80;53.60;;;;;;5059490;28;20511;-72
2023/06/27 05:20:44;;;;;;;7.55;3.80;;;25.00;54.20;;;;;;5059298;28;20048;-72
2023/06/27 05:23:11;;;;;;;7.05;4.20;;;24.90;52.60;;;;;;5061348;28;20032;-72
2023/06/27 05:25:37;;;;;;;5.05;3.70;;;25.00;53.40;;;;;;5057983;28;20086;-73
2023/06/27 05:28:04;;;;;;;5.32;3.97;;;25.10;53.40;;;;;;5061363;28;20033;-72
2023/06/27 05:30:30;;;;;;;6.50;4.00;;;25.20;53.20;;;;;;5055747;28;20045;-72
2023/06/27 05:33:01;;;;;;;6.97;4.20;;;25.40;53.10;;;;;;5057184;28;20082;-73
2023/06/27 05:35:28;;;;;;;4.38;3.88;;;25.60;52.40;;;;;;5059499;28;20061;-72
2023/06/27 05:37:53;;;;;;;7.03;3.88;;;25.80;52.60;;;;;;5060009;28;20029;-72
2023/06/27 05:40:19;;;;;;;4.28;3.50;;;26.00;52.20;;;;;;5059021;28;20087;-72
2023/06/27 05:42:45;;;;;;;4.05;3.65;;;25.90;51.30;;;;;;5060452;28;20028;-73
2023/06/27 05:45:11;;;;;;;3.38;3.08;;;26.10;50.40;;;;;;5058040;28;20451;-73
2023/06/27 05:47:37;;;;;;;3.90;3.22;;;26.30;49.70;;;;;;5057171;28;20503;-73
2023/06/27 05:50:04;;;;;;;4.25;3.15;;;26.30;49.80;;;;;;5056803;28;20048;-72
2023/06/27 05:52:30;;;;;;;3.05;2.63;;;26.40;48.70;;;;;;5055734;28;20041;-72
2023/06/27 05:54:57;;;;;;;4.10;2.92;;;25.90;45.70;;;;;;5058221;28;20031;-73
2023/06/27 05:57:23;;;;;;;3.35;2.83;;;26.00;46.70;;;;;;5059158;28;20415;-72
2023/06/27 05:59:50;;;;;;;3.70;3.30;;;26.10;47.20;;;;;;5060648;28;20478;-72
2023/06/27 06:02:16;;;;;;;3.30;2.45;;;25.90;47.00;;;;;;5058339;28;20070;-72
2023/06/27 06:04:42;;;;;;;3.83;3.00;;;25.60;47.60;;;;;;5057699;28;20044;-72
2023/06/27 06:07:08;;;;;;;6.97;3.25;;;25.80;48.10;;;;;;5057217;28;20071;-72
2023/06/27 06:09:34;;;;;;;5.10;2.83;;;25.60;47.10;;;;;;5063341;28;20105;-73
2023/06/27 06:12:00;;;;;;;3.60;3.03;;;25.50;47.40;;;;;;5059188;28;20060;-71
2023/06/27 06:14:26;;;;;;;5.00;3.10;;;25.50;46.80;;;;;;5061300;28;20063;-70
2023/06/27 06:16:53;;;;;;;3.85;2.97;;;25.30;45.00;;;;;;5061348;28;20136;-70
2023/06/27 06:19:19;;;;;;;3.03;2.72;;;25.20;45.00;;;;;;5062202;28;20412;-71
2023/06/27 06:21:45;;;;;;;3.97;2.97;;;25.20;45.70;;;;;;5062442;28;20070;-71
2023/06/27 06:24:11;;;;;;;4.35;2.88;;;25.30;46.20;;;;;;5059327;28;20033;-70
2023/06/27 06:26:37;;;;;;;4.50;2.80;;;25.70;46.50;;;;;;5061874;28;20040;-79
2023/06/27 06:29:03;;;;;;;3.85;2.53;;;25.80;45.30;;;;;;5063429;28;20041;-77
2023/06/27 06:31:30;;;;;;;3.65;2.85;;;26.00;45.30;;;;;;5062082;28;20063;-79
2023/06/27 06:33:57;;;;;;;4.65;2.97;;;26.20;44.80;;;;;;5061979;28;20074;-78
2023/06/27 06:36:24;;;;;;;5.05;3.30;;;26.00;45.00;;;;;;5060471;28;20484;-80
2023/06/27 06:38:50;;;;;;;3.50;3.20;;;26.00;44.80;;;;;;5063262;28;20091;-78
2023/06/27 06:41:18;;;;;;;2.90;2.70;;;25.70;45.70;;;;;;5061737;28;20032;-77
2023/06/27 06:43:44;;;;;;;3.92;3.10;;;25.80;45.60;;;;;;5060742;28;20036;-73
2023/06/27 06:46:10;;;;;;;4.30;3.05;;;25.80;45.20;;;;;;5062002;28;20044;-77
2023/06/27 06:48:36;;;;;;;4.45;3.08;;;25.70;45.70;;;;;;5061453;28;20445;-74
2023/06/27 06:51:02;;;;;;;7.80;3.30;;;25.60;46.20;;;;;;5062990;28;20039;-77
2023/06/27 06:53:28;;;;;;;4.45;3.28;;;25.30;46.10;;;;;;5061461;28;20040;-77
2023/06/27 06:55:54;;;;;;;4.25;2.78;;;25.00;45.20;;;;;;5060170;28;20089;-77
2023/06/27 06:58:20;;;;;;;3.10;2.90;;;24.90;46.20;;;;;;5062033;28;20734;-74
2023/06/27 07:00:46;;;;;;;3.80;3.40;;;24.60;46.20;;;;;;5062133;28;20093;-76
2023/06/27 07:03:12;;;;;;;3.13;2.70;;;24.50;46.90;;;;;;5062582;28;20052;-77
2023/06/27 07:05:40;;;;;;;3.28;2.95;;;24.40;48.30;;;;;;5061982;28;20036;-80
2023/06/27 07:08:06;;;;;;;4.43;2.80;;;24.40;48.40;;;;;;5062833;28;20029;-77
2023/06/27 07:10:33;;;;;;;3.45;3.15;;;24.30;48.90;;;;;;5060271;28;20044;-77
2023/06/27 07:13:02;;;;;;;3.35;2.90;;;24.20;49.30;;;;;;5061530;28;20029;-79
2023/06/27 07:15:29;;;;;;;3.40;3.10;;;24.20;49.40;;;;;;5061447;28;20401;-78
2023/06/27 07:17:55;;;;;;;3.90;3.30;;;24.10;50.10;;;;;;5061577;28;20060;-77
2023/06/27 07:20:25;;;;;;;3.35;3.05;;;24.00;50.00;;;;;;5060193;28;20557;-77
2023/06/27 07:22:51;;;;;;;3.85;2.70;;;23.80;50.30;;;;;;5060726;28;20044;-78
2023/06/27 07:25:17;;;;;;;5.65;3.25;;;23.80;50.80;;;;;;5054962;28;20051;-76
2023/06/27 07:27:44;;;;;;;3.60;3.03;;;23.90;51.20;;;;;;5060960;28;20033;-76
2023/06/27 07:30:10;;;;;;;4.20;2.80;;;23.90;50.60;;;;;;5060380;28;20032;-78
2023/06/27 07:32:36;;;;;;;3.05;2.85;;;23.60;50.30;;;;;;5059555;28;20028;-74
2023/06/27 07:35:04;;;;;;;4.63;2.80;;;23.40;50.40;;;;;;5062213;28;20107;-76
2023/06/27 07:37:31;;;;;;;3.17;2.72;;;23.40;49.40;;;;;;5060804;28;20029;-76
2023/06/27 07:40:00;;;;;;;2.95;2.75;;;23.40;47.70;;;;;;5061752;28;20406;-74
2023/06/27 07:42:26;;;;;;;3.58;2.85;;;23.40;47.40;;;;;;5061528;28;20083;-77
2023/06/27 07:44:52;;;;;;;3.17;2.88;;;23.60;47.40;;;;;;5055856;28;20037;-75
2023/06/27 07:47:18;;;;;;;4.35;3.25;;;23.80;47.70;;;;;;5062474;28;20109;-78
2023/06/27 07:49:44;;;;;;;3.22;2.92;;;24.00;48.00;;;;;;5061827;28;20039;-76
2023/06/27 07:52:11;;;;;;;3.45;2.90;;;24.30;47.70;;;;;;5061473;28;20029;-78
2023/06/27 07:54:37;;;;;;;4.35;3.10;;;24.40;47.00;;;;;;5061431;28;20134;-75
2023/06/27 07:57:04;;;;;;;4.20;3.15;;;24.40;46.30;;;;;;5059336;28;20040;-77
2023/06/27 07:59:29;;;;;;;4.03;2.70;;;24.20;46.80;;;;;;5059850;28;20033;-76
2023/06/27 08:01:55;;;;;;;3.15;2.88;;;24.20;47.40;;;;;;5061164;28;20232;-75
2023/06/27 08:04:22;;;;;;;3.20;2.78;;;24.20;47.30;;;;;;5059263;28;20075;-74
2023/06/27 08:06:48;;;;;;;4.13;2.85;;;24.20;47.50;;;;;;5059592;28;20681;-80
2023/06/27 08:09:14;;;;;;;4.72;3.25;;;24.40;47.00;;;;;;5059834;28;20032;-78
2023/06/27 08:11:40;;;;;;;3.38;3.08;;;24.00;45.00;;;;;;5060976;28;20090;-78
2023/06/27 08:14:06;;;;;;;4.35;3.00;;;23.90;44.40;;;;;;5059800;28;20029;-78
2023/06/27 08:16:35;;;;;;;3.67;2.70;;;23.90;44.30;;;;;;5063126;28;20047;-79
2023/06/27 08:19:01;;;;;;;4.75;2.88;;;24.00;45.40;;;;;;5060531;28;20043;-79
2023/06/27 08:21:27;;;;;;;3.15;2.72;;;24.00;44.80;;;;;;5055646;28;20044;-81
2023/06/27 08:23:53;;;;;;;3.72;2.88;;;24.00;44.20;;;;;;5061235;28;20040;-76
2023/06/27 08:26:19;;;;;;;2.97;2.70;;;24.00;44.60;;;;;;5060130;28;20127;-77
2023/06/27 08:28:46;;;;;;;4.72;3.42;;;23.90;44.80;;;;;;5061335;28;20039;-77
2023/06/27 08:31:12;;;;;;;3.88;3.05;;;24.10;45.60;;;;;;5058088;28;20032;-78
2023/06/27 08:33:39;;;;;;;4.97;3.10;;;24.30;46.10;;;;;;5062034;28;20110;-77
2023/06/27 08:36:06;;;;;;;3.95;3.05;;;24.30;45.50;;;;;;5059312;28;20419;-77
2023/06/27 08:38:32;;;;;;;4.55;3.15;;;24.20;45.40;;;;;;5059663;28;20435;-77
2023/06/27 08:41:00;;;;;;;4.68;2.95;;;24.20;46.00;;;;;;5058301;28;20033;-78
2023/06/27 08:43:26;;;;;;;4.00;2.92;;;24.30;46.20;;;;;;5061548;28;20507;-78
2023/06/27 08:45:57;;;;;;;4.15;2.63;;;24.20;45.80;;;;;;5060182;28;20052;-78
2023/06/27 08:48:25;;;;;;;2.80;2.55;;;24.20;44.70;;;;;;5060670;28;20075;-81
2023/06/27 08:50:56;;;;;;;2.80;2.60;;;24.20;43.90;;;;;;5059263;28;20124;-85
2023/06/27 08:53:23;;;;;;;3.20;2.90;;;24.20;44.60;;;;;;5057331;28;20043;-78
2023/06/27 08:56:02;;;;;;;3.55;3.25;;;24.20;43.60;;;;;;5060304;28;20045;-79
2023/06/27 08:58:31;;;;;;;5.15;2.67;;;24.20;43.50;;;;;;5062120;28;20521;-76
2023/06/27 09:00:57;;;;;;;3.30;3.00;;;24.00;44.10;;;;;;5059277;28;20039;-77
2023/06/27 09:03:24;;;;;;;3.90;2.63;;;24.00;43.90;;;;;;5060769;28;20519;-80
2023/06/27 09:05:50;;;;;;;4.65;2.70;;;24.10;44.70;;;;;;5057138;28;20037;-80
2023/06/27 09:08:19;;;;;;;4.88;2.90;;;24.20;44.20;;;;;;5057974;28;20032;-75
2023/06/27 09:10:45;;;;;;;3.35;3.05;;;24.00;43.50;;;;;;5061150;28;20497;-77
2023/06/27 09:13:12;;;;;;;4.70;3.17;;;24.10;44.40;;;;;;5057019;28;20480;-80
2023/06/27 09:15:37;;;;;;;2.97;2.78;;;24.10;44.10;;;;;;5057934;28;20074;-81
2023/06/27 09:18:04;;;;;;;4.93;3.10;;;24.20;43.70;;;;;;5060524;28;20044;-81
2023/06/27 09:20:30;;;;;;;3.28;2.92;;;24.10;43.80;;;;;;5058661;28;20037;-76
2023/06/27 09:22:57;;;;;;;3.88;3.20;;;24.10;44.10;;;;;;5059753;28;20033;-75
2023/06/27 09:25:24;;;;;;;5.03;3.20;;;24.20;44.70;;;;;;5058684;28;20037;-73
2023/06/27 09:27:51;;;;;;;3.30;2.97;;;24.10;44.50;;;;;;5058647;28;20503;-74
2023/06/27 09:30:17;;;;;;;5.18;3.58;;;24.00;45.10;;;;;;5060580;28;20407;-73
2023/06/27 09:32:57;;;;;;;6.53;3.58;;;24.20;45.50;;;;;;5058428;28;20025;-77
2023/06/27 09:35:23;;;;;;;4.35;2.92;;;24.00;45.10;;;;;;5058939;28;20182;-79
2023/06/27 09:37:51;;;;;;;2.85;2.65;;;24.30;45.40;;;;;;5060995;28;20041;-78
2023/06/27 09:40:21;;;;;;;4.70;3.00;;;24.20;44.40;;;;;;5060373;28;20033;-79
2023/06/27 09:42:54;;;;;;;3.03;2.80;;;24.20;44.10;;;;;;5060174;28;20451;-77
2023/06/27 09:45:22;;;;;;;5.55;3.45;;;24.20;44.30;;;;;;5060485;28;20044;-77
2023/06/27 09:47:51;;;;;;;3.97;3.17;;;24.30;44.00;;;;;;5059861;28;20048;-77
2023/06/27 09:50:24;;;;;;;3.45;2.85;;;24.40;43.90;;;;;;5063520;28;20492;-78
2023/06/27 09:52:52;;;;;;;3.38;2.80;;;24.50;44.00;;;;;;5031343;28;20040;-80
2023/06/27 09:55:19;;;;;;;3.80;3.50;;;24.60;44.10;;;;;;5063665;28;20036;-78
2023/06/27 09:57:46;;;;;;;6.47;3.22;;;24.50;44.00;;;;;;5063598;28;20127;-77
2023/06/27 10:00:14;;;;;;;3.50;3.20;;;24.60;45.00;;;;;;5061547;28;20036;-77
2023/06/27 10:02:41;;;;;;;4.80;3.10;;;24.60;44.10;;;;;;5063923;28;20499;-76
2023/06/27 10:05:08;;;;;;;6.07;3.45;;;24.50;43.60;;;;;;5061794;28;20041;-74
2023/06/27 10:07:34;;;;;;;4.63;3.28;;;24.50;44.40;;;;;;5061447;28;20458;-77
2023/06/27 10:10:00;;;;;;;3.47;3.10;;;24.40;44.20;;;;;;5066158;28;20426;-77
2023/06/27 10:12:27;;;;;;;5.75;3.25;;;24.50;44.50;;;;;;5062118;28;20024;-80
2023/06/27 10:14:55;;;;;;;4.97;3.35;;;24.50;44.60;;;;;;5042605;28;20169;-75
2023/06/27 10:17:23;;;;;;;4.28;3.10;;;24.40;44.00;;;;;;5062697;28;20040;-78
2023/06/27 10:19:49;;;;;;;3.60;3.30;;;24.40;44.40;;;;;;5061250;28;20037;-75
2023/06/27 10:22:18;;;;;;;4.70;2.70;;;24.40;44.40;;;;;;5057315;28;20028;-70
2023/06/27 10:24:48;;;;;;;3.40;3.10;;;24.50;44.40;;;;;;5062599;28;20033;-71
2023/06/27 10:27:21;;;;;;;4.30;3.25;;;24.40;44.20;;;;;;5063494;28;20037;-73
2023/06/27 10:29:47;;;;;;;5.40;3.47;;;24.20;44.50;;;;;;5062088;28;20032;-70
2023/06/27 10:32:18;;;;;;;3.95;3.17;;;24.30;44.70;;;;;;5061588;28;20845;-72
2023/06/27 10:34:45;;;;;;;4.45;3.10;;;24.40;45.00;;;;;;5062038;28;20216;-73
2023/06/27 10:37:20;;;;;;;3.40;3.10;;;24.40;45.00;;;;;;5061802;28;20032;-75
2023/06/27 10:40:03;;;;;;;4.05;2.90;;;24.30;44.30;;;;;;5061468;28;20398;-73
2023/06/27 10:42:31;;;;;;;3.38;3.05;;;24.30;44.30;;;;;;5062716;28;20063;-81
2023/06/27 10:45:07;;;;;;;4.38;2.80;;;24.30;44.10;;;;;;5062514;28;20032;-75
2023/06/27 10:47:38;;;;;;;3.92;2.90;;;24.30;43.90;;;;;;5063398;28;20033;-74
2023/06/27 10:50:12;;;;;;;3.55;3.00;;;24.30;43.70;;;;;;5063158;28;20037;-73
2023/06/27 10:52:40;;;;;;;4.38;3.00;;;24.30;44.00;;;;;;5063986;28;20039;-73
2023/06/27 10:55:15;;;;;;;4.28;2.85;;;24.20;43.40;;;;;;5059115;28;20119;-72
2023/06/27 10:58:06;;;;;;;3.97;3.10;;;24.30;43.80;;;;;;5063226;28;20040;-73
2023/06/27 11:00:34;;;;;;;3.08;2.80;;;24.40;44.10;;;;;;5054793;28;20048;-72
2023/06/27 11:03:04;;;;;;;6.22;3.42;;;24.40;44.70;;;;;;5062224;28;20496;-72
2023/06/27 11:05:47;;;;;;;3.30;2.90;;;24.50;44.10;;;;;;5061969;28;20054;-71
2023/06/27 11:08:15;;;;;;;4.35;3.33;;;24.40;43.50;;;;;;5047855;28;20028;-71
2023/06/27 11:10:59;;;;;;;4.30;3.50;;;24.30;44.20;;;;;;5062305;28;20058;-73
2023/06/27 11:13:27;;;;;;;5.22;3.08;;;24.30;44.00;;;;;;5060100;28;20045;-75
2023/06/27 11:15:55;;;;;;;5.00;3.33;;;24.30;44.20;;;;;;5060873;28;20053;-74
2023/06/27 11:18:25;;;;;;;3.97;3.28;;;24.20;43.40;;;;;;5062093;28;20029;-74
2023/06/27 11:20:51;;;;;;;4.15;2.90;;;24.20;43.60;;;;;;5060948;28;20040;-72
2023/06/27 11:23:20;;;;;;;5.82;3.72;;;24.30;44.00;;;;;;5060589;28;20041;-76
2023/06/27 11:25:46;;;;;;;5.18;3.58;;;24.30;44.00;;;;;;5060964;28;20140;-76
2023/06/27 11:28:15;;;;;;;4.60;3.30;;;24.20;43.60;;;;;;5041304;28;20080;-75
2023/06/27 11:30:42;;;;;;;4.90;3.50;;;24.20;43.50;;;;;;5061236;28;20077;-74
2023/06/27 11:33:08;;;;;;;3.70;3.40;;;24.10;43.30;;;;;;5056332;28;20032;-72
2023/06/27 11:35:35;;;;;;;4.95;3.65;;;24.20;43.80;;;;;;5060377;28;20716;-73
2023/06/27 11:38:05;;;;;;;4.25;3.33;;;24.30;43.30;;;;;;5060501;28;20043;-72
2023/06/27 11:40:31;;;;;;;3.55;3.25;;;24.30;43.20;;;;;;5063200;28;20066;-72
2023/06/27 11:43:04;;;;;;;3.60;3.30;;;24.20;42.70;;;;;;5059967;28;20025;-72
2023/06/27 11:45:31;;;;;;;3.78;3.05;;;24.20;42.80;;;;;;5061132;28;20523;-72
2023/06/27 11:47:58;;;;;;;4.05;3.42;;;24.30;43.20;;;;;;5061649;28;20032;-72
2023/06/27 11:50:24;;;;;;;3.05;2.75;;;24.30;42.50;;;;;;5059023;28;20037;-73
2023/06/27 11:52:55;;;;;;;3.97;3.13;;;24.40;43.10;;;;;;5062989;28;20029;-72
2023/06/27 11:55:21;;;;;;;4.15;3.53;;;24.40;43.00;;;;;;5059009;28;20029;-72
2023/06/27 11:57:51;;;;;;;3.60;3.30;;;24.40;42.30;;;;;;5061226;28;20364;-72
2023/06/27 12:00:19;;;;;;;4.78;3.47;;;24.40;43.30;;;;;;5058498;28;20495;-73
2023/06/27 12:02:47;;;;;;;3.80;3.28;;;24.50;43.20;;;;;;5060051;28;20040;-74
2023/06/27 12:05:18;;;;;;;3.22;2.92;;;24.50;42.50;;;;;;5062077;28;20132;-72
2023/06/27 12:08:06;;;;;;;3.75;3.35;;;24.40;42.60;;;;;;5061594;28;20064;-73
2023/06/27 12:10:52;;;;;;;3.65;3.35;;;24.50;42.50;;;;;;5062979;28;20127;-74
2023/06/27 12:13:19;;;;;;;4.00;3.60;;;24.50;42.90;;;;;;5060904;28;20044;-74
2023/06/27 12:15:46;;;;;;;3.75;3.45;;;24.50;43.10;;;;;;5060139;28;20041;-70
2023/06/27 12:18:24;;;;;;;3.63;3.28;;;24.50;43.30;;;;;;5061548;28;20039;-73
2023/06/27 12:20:52;;;;;;;3.78;3.05;;;24.40;43.10;;;;;;5061221;28;20045;-73
2023/06/27 12:23:18;;;;;;;4.20;2.92;;;24.20;43.50;;;;;;5047162;28;20040;-70
2023/06/27 12:25:44;;;;;;;3.92;2.97;;;24.40;44.80;;;;;;5058741;28;20037;-72
2023/06/27 12:28:11;;;;;;;4.25;2.97;;;24.30;44.20;;;;;;5059733;28;20067;-71
2023/06/27 12:30:37;;;;;;;3.63;3.33;;;24.30;43.30;;;;;;5060047;28;20500;-70
2023/06/27 12:33:04;;;;;;;4.07;2.97;;;24.20;43.50;;;;;;5045403;28;20067;-72
2023/06/27 12:35:31;;;;;;;3.88;2.92;;;24.30;43.30;;;;;;5057993;28;20044;-71
2023/06/27 12:37:57;;;;;;;6.78;3.00;;;24.20;44.00;;;;;;5059687;28;20035;-71
2023/06/27 12:40:24;;;;;;;4.07;3.20;;;24.20;43.60;;;;;;5057604;28;20040;-71
2023/06/27 12:42:54;;;;;;;3.22;2.92;;;24.20;43.70;;;;;;5060954;28;20036;-70
2023/06/27 12:45:21;;;;;;;5.25;3.25;;;24.30;43.20;;;;;;5074859;28;20401;-70
2023/06/27 12:47:47;;;;;;;3.65;3.00;;;24.40;42.90;;;;;;5061176;28;20037;-71